sensor_id;sensor_type;location;lat;lon;timestamp;temperature;humidity
27896;DHT22;15241;48.374;10.876;2023-06-14T00:00:18;17.40;81.50
27896;DHT22;15241;48.374;10.876;2023-06-14T00:05:17;17.40;82.00
27896;DHT22;15241;48.374;10.876;2023-06-14T00:10:16;17.30;82.90
27896;DHT22;15241;48.374;10.876;2023-06-14T00:15:15;17.30;84.00
27896;DHT22;15241;48.374;10.876;2023-06-14T00:20:14;17.20;83.80
27896;DHT22;15241;48.374;10.876;2023-06-14T00:25:13;17.10;84.40
27896;DHT22;15241;48.374;10.876;2023-06-14T00:30:14;17.00;84.90
27896;DHT22;15241;48.374;10.876;2023-06-14T00:35:13;16.90;85.20
27896;DHT22;15241;48.374;10.876;2023-06-14T00:40:12;16.80;85.80
27896;DHT22;15241;48.374;10.876;2023-06-14T00:45:12;16.70;86.70
27896;DHT22;15241;48.374;10.876;2023-06-14T00:50:11;16.70;87.20
27896;DHT22;15241;48.374;10.876;2023-06-14T00:55:10;16.60;87.50
27896;DHT22;15241;48.374;10.876;2023-06-14T01:00:12;16.40;87.70
27896;DHT22;15241;48.374;10.876;2023-06-14T01:05:12;16.30;89.10
27896;DHT22;15241;48.374;10.876;2023-06-14T01:10:24;16.40;89.60
27896;DHT22;15241;48.374;10.876;2023-06-14T01:15:22;16.30;89.60
27896;DHT22;15241;48.374;10.876;2023-06-14T01:20:22;16.20;90.00
27896;DHT22;15241;48.374;10.876;2023-06-14T01:25:21;16.00;89.70
27896;DHT22;15241;48.374;10.876;2023-06-14T01:30:22;16.10;90.20
27896;DHT22;15241;48.374;10.876;2023-06-14T01:35:21;16.00;90.50
27896;DHT22;15241;48.374;10.876;2023-06-14T01:40:22;15.90;90.30
27896;DHT22;15241;48.374;10.876;2023-06-14T01:45:23;15.90;90.60
27896;DHT22;15241;48.374;10.876;2023-06-14T01:50:22;15.80;90.90
27896;DHT22;15241;48.374;10.876;2023-06-14T01:55:21;15.80;91.30
27896;DHT22;15241;48.374;10.876;2023-06-14T02:00:20;15.70;90.90
27896;DHT22;15241;48.374;10.876;2023-06-14T02:05:19;15.60;90.90
27896;DHT22;15241;48.374;10.876;2023-06-14T02:10:18;15.60;90.90
27896;DHT22;15241;48.374;10.876;2023-06-14T02:15:17;15.60;90.70
27896;DHT22;15241;48.374;10.876;2023-06-14T02:20:16;15.60;90.50
27896;DHT22;15241;48.374;10.876;2023-06-14T02:25:16;15.50;90.70
27896;DHT22;15241;48.374;10.876;2023-06-14T02:30:15;15.50;91.10
27896;DHT22;15241;48.374;10.876;2023-06-14T02:35:14;15.50;91.30
27896;DHT22;15241;48.374;10.876;2023-06-14T02:40:13;15.40;91.30
27896;DHT22;15241;48.374;10.876;2023-06-14T02:45:12;15.40;91.30
27896;DHT22;15241;48.374;10.876;2023-06-14T02:50:11;15.30;91.40
27896;DHT22;15241;48.374;10.876;2023-06-14T02:55:10;15.30;91.40
27896;DHT22;15241;48.374;10.876;2023-06-14T03:00:12;15.30;91.40
27896;DHT22;15241;48.374;10.876;2023-06-14T03:05:10;15.20;91.50
27896;DHT22;15241;48.374;10.876;2023-06-14T03:10:10;15.10;91.60
27896;DHT22;15241;48.374;10.876;2023-06-14T03:15:11;15.10;91.40
27896;DHT22;15241;48.374;10.876;2023-06-14T03:20:11;15.00;91.60
27896;DHT22;15241;48.374;10.876;2023-06-14T03:25:10;15.00;91.80
27896;DHT22;15241;48.374;10.876;2023-06-14T03:30:12;15.00;91.70
27896;DHT22;15241;48.374;10.876;2023-06-14T03:35:10;15.00;91.80
27896;DHT22;15241;48.374;10.876;2023-06-14T03:40:12;15.00;91.80
27896;DHT22;15241;48.374;10.876;2023-06-14T03:45:11;15.10;91.50
27896;DHT22;15241;48.374;10.876;2023-06-14T03:50:11;15.00;91.20
27896;DHT22;15241;48.374;10.876;2023-06-14T03:55:10;15.00;91.20
27896;DHT22;15241;48.374;10.876;2023-06-14T04:00:11;15.00;91.50
27896;DHT22;15241;48.374;10.876;2023-06-14T04:05:10;15.10;91.20
27896;DHT22;15241;48.374;10.876;2023-06-14T04:10:11;15.10;91.40
27896;DHT22;15241;48.374;10.876;2023-06-14T04:15:11;15.10;91.10
27896;DHT22;15241;48.374;10.876;2023-06-14T04:20:10;15.20;91.40
27896;DHT22;15241;48.374;10.876;2023-06-14T04:25:09;15.20;91.50
27896;DHT22;15241;48.374;10.876;2023-06-14T04:30:10;15.30;91.40
27896;DHT22;15241;48.374;10.876;2023-06-14T04:35:09;15.30;91.50
27896;DHT22;15241;48.374;10.876;2023-06-14T04:40:11;15.40;91.50
27896;DHT22;15241;48.374;10.876;2023-06-14T04:45:11;15.40;91.10
27896;DHT22;15241;48.374;10.876;2023-06-14T04:50:11;15.50;91.00
27896;DHT22;15241;48.374;10.876;2023-06-14T04:55:10;15.50;91.40
27896;DHT22;15241;48.374;10.876;2023-06-14T05:00:11;15.60;91.30
27896;DHT22;15241;48.374;10.876;2023-06-14T05:05:10;15.70;91.30
27896;DHT22;15241;48.374;10.876;2023-06-14T05:10:10;15.80;91.50
27896;DHT22;15241;48.374;10.876;2023-06-14T05:15:10;15.90;91.30
27896;DHT22;15241;48.374;10.876;2023-06-14T05:20:10;16.00;91.30
27896;DHT22;15241;48.374;10.876;2023-06-14T05:25:10;16.20;90.90
27896;DHT22;15241;48.374;10.876;2023-06-14T05:30:12;16.20;90.60
27896;DHT22;15241;48.374;10.876;2023-06-14T05:35:11;16.40;90.30
27896;DHT22;15241;48.374;10.876;2023-06-14T05:40:11;16.50;90.60
27896;DHT22;15241;48.374;10.876;2023-06-14T05:45:12;16.60;90.40
27896;DHT22;15241;48.374;10.876;2023-06-14T05:50:11;16.80;90.30
27896;DHT22;15241;48.374;10.876;2023-06-14T05:55:10;16.90;90.00
27896;DHT22;15241;48.374;10.876;2023-06-14T06:00:11;17.00;89.20
27896;DHT22;15241;48.374;10.876;2023-06-14T06:05:11;17.20;89.30
27896;DHT22;15241;48.374;10.876;2023-06-14T06:10:11;17.30;89.20
27896;DHT22;15241;48.374;10.876;2023-06-14T06:15:11;17.30;89.30
27896;DHT22;15241;48.374;10.876;2023-06-14T06:20:12;17.50;90.00
27896;DHT22;15241;48.374;10.876;2023-06-14T06:25:11;17.70;89.90
27896;DHT22;15241;48.374;10.876;2023-06-14T06:30:12;17.80;88.30
27896;DHT22;15241;48.374;10.876;2023-06-14T06:35:11;17.90;89.50
27896;DHT22;15241;48.374;10.876;2023-06-14T06:40:11;17.90;87.90
27896;DHT22;15241;48.374;10.876;2023-06-14T06:45:11;18.10;88.60
27896;DHT22;15241;48.374;10.876;2023-06-14T06:50:12;18.30;88.70
27896;DHT22;15241;48.374;10.876;2023-06-14T06:55:11;18.40;88.10
27896;DHT22;15241;48.374;10.876;2023-06-14T07:00:12;18.50;88.00
27896;DHT22;15241;48.374;10.876;2023-06-14T07:05:11;18.70;88.40
27896;DHT22;15241;48.374;10.876;2023-06-14T07:10:10;18.80;89.20
27896;DHT22;15241;48.374;10.876;2023-06-14T07:15:11;19.00;88.90
27896;DHT22;15241;48.374;10.876;2023-06-14T07:20:12;19.10;87.80
27896;DHT22;15241;48.374;10.876;2023-06-14T07:25:12;19.30;87.80
27896;DHT22;15241;48.374;10.876;2023-06-14T07:30:13;19.40;87.40
27896;DHT22;15241;48.374;10.876;2023-06-14T07:35:12;19.60;86.70
27896;DHT22;15241;48.374;10.876;2023-06-14T07:40:13;19.80;86.50
27896;DHT22;15241;48.374;10.876;2023-06-14T07:45:13;19.90;85.60
27896;DHT22;15241;48.374;10.876;2023-06-14T07:50:12;20.10;86.60
27896;DHT22;15241;48.374;10.876;2023-06-14T07:55:11;20.30;86.30
27896;DHT22;15241;48.374;10.876;2023-06-14T08:00:12;20.40;85.20
27896;DHT22;15241;48.374;10.876;2023-06-14T08:05:12;20.60;85.10
27896;DHT22;15241;48.374;10.876;2023-06-14T08:10:11;20.70;83.20
27896;DHT22;15241;48.374;10.876;2023-06-14T08:15:11;20.90;83.30
27896;DHT22;15241;48.374;10.876;2023-06-14T08:20:12;21.10;82.00
27896;DHT22;15241;48.374;10.876;2023-06-14T08:30:18;21.40;81.00
27896;DHT22;15241;48.374;10.876;2023-06-14T08:35:17;21.60;80.20
27896;DHT22;15241;48.374;10.876;2023-06-14T08:40:20;21.70;81.20
27896;DHT22;15241;48.374;10.876;2023-06-14T08:45:20;21.90;81.90
27896;DHT22;15241;48.374;10.876;2023-06-14T08:50:21;22.20;81.50
27896;DHT22;15241;48.374;10.876;2023-06-14T08:55:21;22.40;80.60
27896;DHT22;15241;48.374;10.876;2023-06-14T09:00:21;22.50;78.40
27896;DHT22;15241;48.374;10.876;2023-06-14T09:05:20;22.80;77.10
27896;DHT22;15241;48.374;10.876;2023-06-14T09:10:21;23.10;75.90
27896;DHT22;15241;48.374;10.876;2023-06-14T09:15:21;23.20;75.80
27896;DHT22;15241;48.374;10.876;2023-06-14T09:20:20;23.50;74.40
27896;DHT22;15241;48.374;10.876;2023-06-14T09:25:19;23.70;74.90
27896;DHT22;15241;48.374;10.876;2023-06-14T09:35:31;24.00;71.30
27896;DHT22;15241;48.374;10.876;2023-06-14T09:40:34;24.10;69.30
27896;DHT22;15241;48.374;10.876;2023-06-14T09:45:34;24.20;69.40
27896;DHT22;15241;48.374;10.876;2023-06-14T09:50:33;24.60;69.20
27896;DHT22;15241;48.374;10.876;2023-06-14T10:00:42;25.20;66.40
27896;DHT22;15241;48.374;10.876;2023-06-14T10:05:45;25.50;66.90
27896;DHT22;15241;48.374;10.876;2023-06-14T10:10:45;25.70;66.10
27896;DHT22;15241;48.374;10.876;2023-06-14T10:16:09;26.00;65.90
27896;DHT22;15241;48.374;10.876;2023-06-14T10:21:16;26.30;63.20
27896;DHT22;15241;48.374;10.876;2023-06-14T10:26:20;26.60;62.90
27896;DHT22;15241;48.374;10.876;2023-06-14T10:31:19;26.90;61.00
27896;DHT22;15241;48.374;10.876;2023-06-14T10:36:28;27.10;60.70
27896;DHT22;15241;48.374;10.876;2023-06-14T10:41:29;27.50;59.80
27896;DHT22;15241;48.374;10.876;2023-06-14T10:46:30;27.70;59.50
27896;DHT22;15241;48.374;10.876;2023-06-14T10:51:31;27.90;56.20
27896;DHT22;15241;48.374;10.876;2023-06-14T10:56:31;27.90;58.60
27896;DHT22;15241;48.374;10.876;2023-06-14T11:06:50;28.00;59.10
27896;DHT22;15241;48.374;10.876;2023-06-14T11:11:50;28.30;56.10
27896;DHT22;15241;48.374;10.876;2023-06-14T11:16:50;28.70;59.10
27896;DHT22;15241;48.374;10.876;2023-06-14T11:21:49;29.20;55.10
27896;DHT22;15241;48.374;10.876;2023-06-14T11:26:48;29.50;55.60
27896;DHT22;15241;48.374;10.876;2023-06-14T11:31:47;29.90;55.90
27896;DHT22;15241;48.374;10.876;2023-06-14T11:36:46;29.90;54.10
27896;DHT22;15241;48.374;10.876;2023-06-14T11:41:46;30.20;56.70
27896;DHT22;15241;48.374;10.876;2023-06-14T11:46:45;30.70;56.70
27896;DHT22;15241;48.374;10.876;2023-06-14T11:51:44;30.80;55.40
27896;DHT22;15241;48.374;10.876;2023-06-14T11:56:43;31.10;54.10
27896;DHT22;15241;48.374;10.876;2023-06-14T12:01:43;31.20;53.10
27896;DHT22;15241;48.374;10.876;2023-06-14T12:06:43;30.90;52.60
27896;DHT22;15241;48.374;10.876;2023-06-14T12:11:41;31.00;54.20
27896;DHT22;15241;48.374;10.876;2023-06-14T12:16:41;31.40;54.20
27896;DHT22;15241;48.374;10.876;2023-06-14T12:21:40;31.40;51.70
27896;DHT22;15241;48.374;10.876;2023-06-14T12:26:40;31.50;53.10
27896;DHT22;15241;48.374;10.876;2023-06-14T12:31:39;31.10;52.80
27896;DHT22;15241;48.374;10.876;2023-06-14T12:36:38;31.00;52.70
27896;DHT22;15241;48.374;10.876;2023-06-14T12:41:37;30.80;53.50
27896;DHT22;15241;48.374;10.876;2023-06-14T12:46:36;30.40;53.40
27896;DHT22;15241;48.374;10.876;2023-06-14T12:51:35;30.00;53.30
27896;DHT22;15241;48.374;10.876;2023-06-14T12:56:34;30.30;52.80
27896;DHT22;15241;48.374;10.876;2023-06-14T13:01:33;30.80;53.60
27896;DHT22;15241;48.374;10.876;2023-06-14T13:06:32;31.20;50.30
27896;DHT22;15241;48.374;10.876;2023-06-14T13:11:31;31.50;52.80
27896;DHT22;15241;48.374;10.876;2023-06-14T13:16:30;31.90;51.30
27896;DHT22;15241;48.374;10.876;2023-06-14T13:21:29;31.70;52.50
27896;DHT22;15241;48.374;10.876;2023-06-14T13:26:27;31.60;50.50
27896;DHT22;15241;48.374;10.876;2023-06-14T13:31:26;31.20;52.90
27896;DHT22;15241;48.374;10.876;2023-06-14T13:36:25;30.70;52.50
27896;DHT22;15241;48.374;10.876;2023-06-14T13:41:25;30.20;53.20
27896;DHT22;15241;48.374;10.876;2023-06-14T13:46:24;30.00;53.40
27896;DHT22;15241;48.374;10.876;2023-06-14T13:51:23;30.00;53.60
27896;DHT22;15241;48.374;10.876;2023-06-14T13:56:22;30.50;54.20
27896;DHT22;15241;48.374;10.876;2023-06-14T14:01:21;30.80;53.50
27896;DHT22;15241;48.374;10.876;2023-06-14T14:06:20;31.10;52.80
27896;DHT22;15241;48.374;10.876;2023-06-14T14:11:19;30.90;51.60
27896;DHT22;15241;48.374;10.876;2023-06-14T14:16:18;30.40;52.30
27896;DHT22;15241;48.374;10.876;2023-06-14T14:21:17;30.40;52.50
27896;DHT22;15241;48.374;10.876;2023-06-14T14:26:16;30.30;54.00
27896;DHT22;15241;48.374;10.876;2023-06-14T14:31:15;29.90;53.90
27896;DHT22;15241;48.374;10.876;2023-06-14T14:36:13;29.60;52.70
27896;DHT22;15241;48.374;10.876;2023-06-14T14:41:12;29.30;53.60
27896;DHT22;15241;48.374;10.876;2023-06-14T14:46:11;29.20;53.50
27896;DHT22;15241;48.374;10.876;2023-06-14T14:51:10;29.10;53.20
27896;DHT22;15241;48.374;10.876;2023-06-14T14:56:09;28.80;54.40
27896;DHT22;15241;48.374;10.876;2023-06-14T15:01:08;28.80;53.10
27896;DHT22;15241;48.374;10.876;2023-06-14T15:06:08;29.10;54.30
27896;DHT22;15241;48.374;10.876;2023-06-14T15:11:07;29.40;54.00
27896;DHT22;15241;48.374;10.876;2023-06-14T15:16:06;29.80;53.00
27896;DHT22;15241;48.374;10.876;2023-06-14T15:21:05;29.80;53.70
27896;DHT22;15241;48.374;10.876;2023-06-14T15:26:04;30.00;52.20
27896;DHT22;15241;48.374;10.876;2023-06-14T15:31:03;30.10;51.80
27896;DHT22;15241;48.374;10.876;2023-06-14T15:36:02;30.30;53.10
27896;DHT22;15241;48.374;10.876;2023-06-14T15:41:00;30.60;52.80
27896;DHT22;15241;48.374;10.876;2023-06-14T15:45:59;30.70;52.00
27896;DHT22;15241;48.374;10.876;2023-06-14T15:50:58;30.60;51.90
27896;DHT22;15241;48.374;10.876;2023-06-14T15:55:57;30.80;52.00
27896;DHT22;15241;48.374;10.876;2023-06-14T16:00:56;31.10;52.70
27896;DHT22;15241;48.374;10.876;2023-06-14T16:05:55;31.10;51.90
27896;DHT22;15241;48.374;10.876;2023-06-14T16:10:54;30.80;52.40
27896;DHT22;15241;48.374;10.876;2023-06-14T16:15:53;30.50;52.90
27896;DHT22;15241;48.374;10.876;2023-06-14T16:20:52;30.00;52.20
27896;DHT22;15241;48.374;10.876;2023-06-14T16:25:51;29.70;53.00
27896;DHT22;15241;48.374;10.876;2023-06-14T16:30:50;29.50;53.90
27896;DHT22;15241;48.374;10.876;2023-06-14T16:35:49;29.40;52.70
27896;DHT22;15241;48.374;10.876;2023-06-14T16:40:51;28.90;52.90
27896;DHT22;15241;48.374;10.876;2023-06-14T16:45:50;29.00;54.20
27896;DHT22;15241;48.374;10.876;2023-06-14T16:50:49;28.80;54.90
27896;DHT22;15241;48.374;10.876;2023-06-14T16:55:48;28.80;54.90
27896;DHT22;15241;48.374;10.876;2023-06-14T17:00:47;28.60;55.20
27896;DHT22;15241;48.374;10.876;2023-06-14T17:05:55;28.40;56.40
27896;DHT22;15241;48.374;10.876;2023-06-14T17:10:55;28.00;55.80
27896;DHT22;15241;48.374;10.876;2023-06-14T17:15:53;27.70;56.50
27896;DHT22;15241;48.374;10.876;2023-06-14T17:20:52;27.40;57.80
27896;DHT22;15241;48.374;10.876;2023-06-14T17:25:51;27.20;58.10
27896;DHT22;15241;48.374;10.876;2023-06-14T17:30:50;26.90;57.40
27896;DHT22;15241;48.374;10.876;2023-06-14T17:35:49;26.80;58.50
27896;DHT22;15241;48.374;10.876;2023-06-14T17:40:48;26.60;58.10
27896;DHT22;15241;48.374;10.876;2023-06-14T17:45:47;26.30;59.50
27896;DHT22;15241;48.374;10.876;2023-06-14T17:50:46;26.00;59.80
27896;DHT22;15241;48.374;10.876;2023-06-14T17:55:45;25.80;59.90
27896;DHT22;15241;48.374;10.876;2023-06-14T18:00:45;25.60;61.60
27896;DHT22;15241;48.374;10.876;2023-06-14T18:05:44;25.40;61.30
27896;DHT22;15241;48.374;10.876;2023-06-14T18:10:43;25.20;62.10
27896;DHT22;15241;48.374;10.876;2023-06-14T18:15:42;25.10;62.00
27896;DHT22;15241;48.374;10.876;2023-06-14T18:20:41;24.90;61.90
27896;DHT22;15241;48.374;10.876;2023-06-14T18:25:40;24.80;64.00
27896;DHT22;15241;48.374;10.876;2023-06-14T18:30:39;24.60;63.20
27896;DHT22;15241;48.374;10.876;2023-06-14T18:35:38;24.60;64.40
27896;DHT22;15241;48.374;10.876;2023-06-14T18:40:37;24.40;64.20
27896;DHT22;15241;48.374;10.876;2023-06-14T18:45:36;24.30;64.30
27896;DHT22;15241;48.374;10.876;2023-06-14T18:50:35;24.10;65.10
27896;DHT22;15241;48.374;10.876;2023-06-14T18:55:34;24.00;65.10
27896;DHT22;15241;48.374;10.876;2023-06-14T19:00:33;23.90;66.10
27896;DHT22;15241;48.374;10.876;2023-06-14T19:05:32;23.80;66.10
27896;DHT22;15241;48.374;10.876;2023-06-14T19:10:31;23.70;66.80
27896;DHT22;15241;48.374;10.876;2023-06-14T19:15:30;23.60;68.70
27896;DHT22;15241;48.374;10.876;2023-06-14T19:20:29;23.50;67.40
27896;DHT22;15241;48.374;10.876;2023-06-14T19:25:28;23.30;68.10
27896;DHT22;15241;48.374;10.876;2023-06-14T19:30:27;23.20;67.90
27896;DHT22;15241;48.374;10.876;2023-06-14T19:35:26;23.10;68.20
27896;DHT22;15241;48.374;10.876;2023-06-14T19:40:25;23.10;68.40
27896;DHT22;15241;48.374;10.876;2023-06-14T19:45:24;23.00;68.40
27896;DHT22;15241;48.374;10.876;2023-06-14T19:50:23;22.90;68.70
27896;DHT22;15241;48.374;10.876;2023-06-14T19:55:22;22.80;68.60
27896;DHT22;15241;48.374;10.876;2023-06-14T20:00:21;22.70;69.00
27896;DHT22;15241;48.374;10.876;2023-06-14T20:05:20;22.70;69.50
27896;DHT22;15241;48.374;10.876;2023-06-14T20:10:19;22.60;70.20
27896;DHT22;15241;48.374;10.876;2023-06-14T20:15:18;22.60;70.60
27896;DHT22;15241;48.374;10.876;2023-06-14T20:20:17;22.50;70.40
27896;DHT22;15241;48.374;10.876;2023-06-14T20:25:16;22.40;71.50
27896;DHT22;15241;48.374;10.876;2023-06-14T20:30:15;22.30;71.80
27896;DHT22;15241;48.374;10.876;2023-06-14T20:35:14;22.30;71.90
27896;DHT22;15241;48.374;10.876;2023-06-14T20:40:21;22.10;72.10
27896;DHT22;15241;48.374;10.876;2023-06-14T20:45:20;22.20;72.90
27896;DHT22;15241;48.374;10.876;2023-06-14T20:50:19;22.10;73.20
27896;DHT22;15241;48.374;10.876;2023-06-14T20:55:17;22.10;73.80
27896;DHT22;15241;48.374;10.876;2023-06-14T21:00:17;22.00;73.40
27896;DHT22;15241;48.374;10.876;2023-06-14T21:05:16;21.90;73.20
27896;DHT22;15241;48.374;10.876;2023-06-14T21:10:15;21.80;73.90
27896;DHT22;15241;48.374;10.876;2023-06-14T21:15:14;21.70;74.20
27896;DHT22;15241;48.374;10.876;2023-06-14T21:20:13;21.70;75.30
27896;DHT22;15241;48.374;10.876;2023-06-14T21:25:12;21.60;74.80
27896;DHT22;15241;48.374;10.876;2023-06-14T21:30:14;21.40;75.80
27896;DHT22;15241;48.374;10.876;2023-06-14T21:35:14;21.40;75.70
27896;DHT22;15241;48.374;10.876;2023-06-14T21:40:13;21.20;75.80
27896;DHT22;15241;48.374;10.876;2023-06-14T21:45:13;21.20;76.60
27896;DHT22;15241;48.374;10.876;2023-06-14T21:50:12;21.10;77.30
27896;DHT22;15241;48.374;10.876;2023-06-14T21:55:11;21.00;77.50
27896;DHT22;15241;48.374;10.876;2023-06-14T22:00:14;20.90;78.10
27896;DHT22;15241;48.374;10.876;2023-06-14T22:05:13;20.80;78.30
27896;DHT22;15241;48.374;10.876;2023-06-14T22:10:12;20.70;78.70
27896;DHT22;15241;48.374;10.876;2023-06-14T22:15:11;20.60;79.20
27896;DHT22;15241;48.374;10.876;2023-06-14T22:20:11;20.50;79.60
27896;DHT22;15241;48.374;10.876;2023-06-14T22:25:10;20.40;79.70
27896;DHT22;15241;48.374;10.876;2023-06-14T22:30:13;20.40;80.10
27896;DHT22;15241;48.374;10.876;2023-06-14T22:35:12;20.30;80.90
27896;DHT22;15241;48.374;10.876;2023-06-14T22:40:12;20.20;80.90
27896;DHT22;15241;48.374;10.876;2023-06-14T22:45:11;20.10;81.90
27896;DHT22;15241;48.374;10.876;2023-06-14T22:50:11;20.10;81.90
27896;DHT22;15241;48.374;10.876;2023-06-14T22:55:11;20.00;82.20
27896;DHT22;15241;48.374;10.876;2023-06-14T23:00:13;19.90;83.50
27896;DHT22;15241;48.374;10.876;2023-06-14T23:05:12;19.80;83.20
27896;DHT22;15241;48.374;10.876;2023-06-14T23:10:11;19.80;83.80
27896;DHT22;15241;48.374;10.876;2023-06-14T23:15:10;19.60;83.60
27896;DHT22;15241;48.374;10.876;2023-06-14T23:20:11;19.60;84.10
27896;DHT22;15241;48.374;10.876;2023-06-14T23:25:10;19.50;84.40
27896;DHT22;15241;48.374;10.876;2023-06-14T23:30:10;19.40;84.80
27896;DHT22;15241;48.374;10.876;2023-06-14T23:35:09;19.40;85.00
27896;DHT22;15241;48.374;10.876;2023-06-14T23:40:10;19.30;85.20
27896;DHT22;15241;48.374;10.876;2023-06-14T23:45:10;19.20;86.20
27896;DHT22;15241;48.374;10.876;2023-06-14T23:50:10;19.10;86.30
27896;DHT22;15241;48.374;10.876;2023-06-14T23:55:10;19.10;86.60
